sensor_id;sensor_type;location;lat;lon;timestamp;P1;durP1;ratioP1;P2;durP2;ratioP2
48534;SDS011;34323;52.022;5.686;2023-05-07T00:00:32;7.40;;;5.85;;
48534;SDS011;34323;52.022;5.686;2023-05-07T00:02:59;8.02;;;5.88;;
48534;SDS011;34323;52.022;5.686;2023-05-07T00:05:24;9.55;;;6.50;;
48534;SDS011;34323;52.022;5.686;2023-05-07T00:07:50;7.82;;;5.85;;
48534;SDS011;34323;52.022;5.686;2023-05-07T00:10:17;9.25;;;6.65;;
48534;SDS011;34323;52.022;5.686;2023-05-07T00:12:43;9.95;;;6.43;;
48534;SDS011;34323;52.022;5.686;2023-05-07T00:15:08;8.90;;;6.20;;
48534;SDS011;34323;52.022;5.686;2023-05-07T00:17:34;7.63;;;6.40;;
48534;SDS011;34323;52.022;5.686;2023-05-07T00:20:00;8.63;;;6.40;;
48534;SDS011;34323;52.022;5.686;2023-05-07T00:22:26;9.77;;;5.93;;
48534;SDS011;34323;52.022;5.686;2023-05-07T00:24:51;7.82;;;5.93;;
48534;SDS011;34323;52.022;5.686;2023-05-07T00:27:17;10.13;;;6.32;;
48534;SDS011;34323;52.022;5.686;2023-05-07T00:29:42;10.15;;;7.40;;
48534;SDS011;34323;52.022;5.686;2023-05-07T00:32:08;7.88;;;6.00;;
48534;SDS011;34323;52.022;5.686;2023-05-07T00:34:34;8.82;;;6.13;;
48534;SDS011;34323;52.022;5.686;2023-05-07T00:37:01;9.35;;;5.75;;
48534;SDS011;34323;52.022;5.686;2023-05-07T00:39:26;6.80;;;6.10;;
48534;SDS011;34323;52.022;5.686;2023-05-07T00:41:52;8.68;;;7.25;;
48534;SDS011;34323;52.022;5.686;2023-05-07T00:44:17;9.10;;;6.78;;
48534;SDS011;34323;52.022;5.686;2023-05-07T00:46:43;9.15;;;6.55;;
48534;SDS011;34323;52.022;5.686;2023-05-07T00:49:09;8.63;;;6.90;;
48534;SDS011;34323;52.022;5.686;2023-05-07T00:51:36;10.82;;;7.15;;
48534;SDS011;34323;52.022;5.686;2023-05-07T00:54:02;9.10;;;6.97;;
48534;SDS011;34323;52.022;5.686;2023-05-07T00:56:28;13.90;;;7.00;;
48534;SDS011;34323;52.022;5.686;2023-05-07T00:58:53;8.98;;;6.88;;
48534;SDS011;34323;52.022;5.686;2023-05-07T01:01:20;10.95;;;6.90;;
48534;SDS011;34323;52.022;5.686;2023-05-07T01:03:46;10.65;;;7.53;;
48534;SDS011;34323;52.022;5.686;2023-05-07T01:06:11;9.80;;;6.68;;
48534;SDS011;34323;52.022;5.686;2023-05-07T01:08:41;11.00;;;7.40;;
48534;SDS011;34323;52.022;5.686;2023-05-07T01:11:07;7.50;;;6.65;;
48534;SDS011;34323;52.022;5.686;2023-05-07T01:13:34;9.88;;;7.28;;
48534;SDS011;34323;52.022;5.686;2023-05-07T01:16:01;13.55;;;8.02;;
48534;SDS011;34323;52.022;5.686;2023-05-07T01:18:27;12.07;;;7.50;;
48534;SDS011;34323;52.022;5.686;2023-05-07T01:20:55;9.65;;;7.70;;
48534;SDS011;34323;52.022;5.686;2023-05-07T01:23:23;9.73;;;7.57;;
48534;SDS011;34323;52.022;5.686;2023-05-07T01:25:53;10.15;;;7.57;;
48534;SDS011;34323;52.022;5.686;2023-05-07T01:28:19;8.73;;;6.80;;
48534;SDS011;34323;52.022;5.686;2023-05-07T01:30:46;8.63;;;6.78;;
48534;SDS011;34323;52.022;5.686;2023-05-07T01:33:17;9.57;;;6.72;;
48534;SDS011;34323;52.022;5.686;2023-05-07T01:35:47;8.73;;;6.78;;
48534;SDS011;34323;52.022;5.686;2023-05-07T01:38:16;8.07;;;6.68;;
48534;SDS011;34323;52.022;5.686;2023-05-07T01:40:43;10.63;;;7.30;;
48534;SDS011;34323;52.022;5.686;2023-05-07T01:43:10;9.60;;;6.97;;
48534;SDS011;34323;52.022;5.686;2023-05-07T01:45:36;10.90;;;6.90;;
48534;SDS011;34323;52.022;5.686;2023-05-07T01:48:02;9.75;;;6.57;;
48534;SDS011;34323;52.022;5.686;2023-05-07T01:50:28;12.18;;;7.00;;
48534;SDS011;34323;52.022;5.686;2023-05-07T01:52:55;9.15;;;7.57;;
48534;SDS011;34323;52.022;5.686;2023-05-07T01:55:21;11.25;;;7.25;;
48534;SDS011;34323;52.022;5.686;2023-05-07T01:57:47;10.68;;;7.22;;
48534;SDS011;34323;52.022;5.686;2023-05-07T02:00:12;9.90;;;7.30;;
48534;SDS011;34323;52.022;5.686;2023-05-07T02:02:38;10.48;;;7.40;;
48534;SDS011;34323;52.022;5.686;2023-05-07T02:05:04;9.88;;;7.90;;
48534;SDS011;34323;52.022;5.686;2023-05-07T02:07:29;12.45;;;7.95;;
48534;SDS011;34323;52.022;5.686;2023-05-07T02:09:55;9.82;;;7.22;;
48534;SDS011;34323;52.022;5.686;2023-05-07T02:12:21;10.30;;;7.38;;
48534;SDS011;34323;52.022;5.686;2023-05-07T02:14:47;8.27;;;7.05;;
48534;SDS011;34323;52.022;5.686;2023-05-07T02:17:13;10.15;;;7.32;;
48534;SDS011;34323;52.022;5.686;2023-05-07T02:19:38;11.80;;;7.47;;
48534;SDS011;34323;52.022;5.686;2023-05-07T02:22:04;10.30;;;7.70;;
48534;SDS011;34323;52.022;5.686;2023-05-07T02:24:30;10.93;;;7.70;;
48534;SDS011;34323;52.022;5.686;2023-05-07T02:26:55;8.45;;;7.50;;
48534;SDS011;34323;52.022;5.686;2023-05-07T02:29:21;8.50;;;7.28;;
48534;SDS011;34323;52.022;5.686;2023-05-07T02:31:46;10.02;;;8.13;;
48534;SDS011;34323;52.022;5.686;2023-05-07T02:34:15;9.60;;;7.90;;
48534;SDS011;34323;52.022;5.686;2023-05-07T02:36:41;10.43;;;7.63;;
48534;SDS011;34323;52.022;5.686;2023-05-07T02:39:07;10.23;;;8.45;;
48534;SDS011;34323;52.022;5.686;2023-05-07T02:41:32;13.88;;;7.93;;
48534;SDS011;34323;52.022;5.686;2023-05-07T02:43:58;9.43;;;7.47;;
48534;SDS011;34323;52.022;5.686;2023-05-07T02:46:23;10.68;;;7.43;;
48534;SDS011;34323;52.022;5.686;2023-05-07T02:48:49;10.45;;;7.60;;
48534;SDS011;34323;52.022;5.686;2023-05-07T02:51:17;9.75;;;7.03;;
48534;SDS011;34323;52.022;5.686;2023-05-07T02:53:47;10.55;;;7.53;;
48534;SDS011;34323;52.022;5.686;2023-05-07T02:56:13;10.73;;;7.82;;
48534;SDS011;34323;52.022;5.686;2023-05-07T02:58:38;10.95;;;7.28;;
48534;SDS011;34323;52.022;5.686;2023-05-07T03:01:05;9.57;;;8.18;;
48534;SDS011;34323;52.022;5.686;2023-05-07T03:03:31;11.93;;;8.25;;
48534;SDS011;34323;52.022;5.686;2023-05-07T03:05:56;10.43;;;7.80;;
48534;SDS011;34323;52.022;5.686;2023-05-07T03:08:22;11.35;;;8.73;;
48534;SDS011;34323;52.022;5.686;2023-05-07T03:10:47;10.55;;;8.48;;
48534;SDS011;34323;52.022;5.686;2023-05-07T03:13:13;11.88;;;8.50;;
48534;SDS011;34323;52.022;5.686;2023-05-07T03:15:39;12.63;;;8.35;;
48534;SDS011;34323;52.022;5.686;2023-05-07T03:18:05;11.48;;;8.65;;
48534;SDS011;34323;52.022;5.686;2023-05-07T03:20:30;12.60;;;8.85;;
48534;SDS011;34323;52.022;5.686;2023-05-07T03:22:56;12.40;;;8.68;;
48534;SDS011;34323;52.022;5.686;2023-05-07T03:25:22;9.98;;;8.05;;
48534;SDS011;34323;52.022;5.686;2023-05-07T03:27:48;10.85;;;8.30;;
48534;SDS011;34323;52.022;5.686;2023-05-07T03:30:13;11.00;;;9.25;;
48534;SDS011;34323;52.022;5.686;2023-05-07T03:32:39;11.38;;;9.05;;
48534;SDS011;34323;52.022;5.686;2023-05-07T03:35:05;10.98;;;8.75;;
48534;SDS011;34323;52.022;5.686;2023-05-07T03:37:30;11.90;;;8.70;;
48534;SDS011;34323;52.022;5.686;2023-05-07T03:39:56;12.25;;;9.63;;
48534;SDS011;34323;52.022;5.686;2023-05-07T03:42:22;13.60;;;9.32;;
48534;SDS011;34323;52.022;5.686;2023-05-07T03:44:48;14.07;;;9.80;;
48534;SDS011;34323;52.022;5.686;2023-05-07T03:47:13;15.40;;;9.50;;
48534;SDS011;34323;52.022;5.686;2023-05-07T03:49:39;15.30;;;10.60;;
48534;SDS011;34323;52.022;5.686;2023-05-07T03:52:05;13.10;;;10.20;;
48534;SDS011;34323;52.022;5.686;2023-05-07T03:54:31;12.40;;;10.30;;
48534;SDS011;34323;52.022;5.686;2023-05-07T03:56:56;15.90;;;10.88;;
48534;SDS011;34323;52.022;5.686;2023-05-07T03:59:22;14.20;;;11.10;;
48534;SDS011;34323;52.022;5.686;2023-05-07T04:01:47;14.15;;;10.25;;
48534;SDS011;34323;52.022;5.686;2023-05-07T04:04:16;15.13;;;10.88;;
48534;SDS011;34323;52.022;5.686;2023-05-07T04:06:41;15.60;;;11.48;;
48534;SDS011;34323;52.022;5.686;2023-05-07T04:09:07;16.08;;;11.05;;
48534;SDS011;34323;52.022;5.686;2023-05-07T04:11:33;16.75;;;11.57;;
48534;SDS011;34323;52.022;5.686;2023-05-07T04:13:58;20.20;;;12.15;;
48534;SDS011;34323;52.022;5.686;2023-05-07T04:16:24;17.08;;;11.23;;
48534;SDS011;34323;52.022;5.686;2023-05-07T04:18:50;16.40;;;11.25;;
48534;SDS011;34323;52.022;5.686;2023-05-07T04:21:19;16.85;;;11.80;;
48534;SDS011;34323;52.022;5.686;2023-05-07T04:23:46;17.58;;;11.48;;
48534;SDS011;34323;52.022;5.686;2023-05-07T04:26:12;17.92;;;12.43;;
48534;SDS011;34323;52.022;5.686;2023-05-07T04:28:38;21.40;;;11.68;;
48534;SDS011;34323;52.022;5.686;2023-05-07T04:31:04;18.05;;;11.90;;
48534;SDS011;34323;52.022;5.686;2023-05-07T04:33:30;18.20;;;11.10;;
48534;SDS011;34323;52.022;5.686;2023-05-07T04:35:56;17.48;;;11.40;;
48534;SDS011;34323;52.022;5.686;2023-05-07T04:38:22;17.25;;;11.50;;
48534;SDS011;34323;52.022;5.686;2023-05-07T04:40:48;15.23;;;12.10;;
48534;SDS011;34323;52.022;5.686;2023-05-07T04:43:14;15.40;;;11.65;;
48534;SDS011;34323;52.022;5.686;2023-05-07T04:45:41;18.33;;;12.50;;
48534;SDS011;34323;52.022;5.686;2023-05-07T04:48:06;19.17;;;11.85;;
48534;SDS011;34323;52.022;5.686;2023-05-07T04:50:33;16.08;;;12.38;;
48534;SDS011;34323;52.022;5.686;2023-05-07T04:52:59;18.40;;;12.60;;
48534;SDS011;34323;52.022;5.686;2023-05-07T04:55:24;17.80;;;12.82;;
48534;SDS011;34323;52.022;5.686;2023-05-07T04:57:51;16.10;;;12.73;;
48534;SDS011;34323;52.022;5.686;2023-05-07T05:00:17;20.50;;;13.45;;
48534;SDS011;34323;52.022;5.686;2023-05-07T05:02:44;19.02;;;12.88;;
48534;SDS011;34323;52.022;5.686;2023-05-07T05:05:10;17.35;;;12.30;;
48534;SDS011;34323;52.022;5.686;2023-05-07T05:07:36;18.27;;;12.43;;
48534;SDS011;34323;52.022;5.686;2023-05-07T05:10:02;29.27;;;13.75;;
48534;SDS011;34323;52.022;5.686;2023-05-07T05:12:28;19.90;;;12.90;;
48534;SDS011;34323;52.022;5.686;2023-05-07T05:14:55;21.15;;;12.90;;
48534;SDS011;34323;52.022;5.686;2023-05-07T05:17:20;21.00;;;12.95;;
48534;SDS011;34323;52.022;5.686;2023-05-07T05:19:46;15.60;;;12.13;;
48534;SDS011;34323;52.022;5.686;2023-05-07T05:22:11;19.05;;;13.07;;
48534;SDS011;34323;52.022;5.686;2023-05-07T05:24:37;23.40;;;13.55;;
48534;SDS011;34323;52.022;5.686;2023-05-07T05:27:02;20.45;;;14.10;;
48534;SDS011;34323;52.022;5.686;2023-05-07T05:29:28;19.55;;;13.52;;
48534;SDS011;34323;52.022;5.686;2023-05-07T05:31:56;16.80;;;13.43;;
48534;SDS011;34323;52.022;5.686;2023-05-07T05:34:21;18.13;;;13.70;;
48534;SDS011;34323;52.022;5.686;2023-05-07T05:36:47;20.55;;;14.35;;
48534;SDS011;34323;52.022;5.686;2023-05-07T05:39:13;18.58;;;13.65;;
48534;SDS011;34323;52.022;5.686;2023-05-07T05:41:39;19.95;;;14.20;;
48534;SDS011;34323;52.022;5.686;2023-05-07T05:44:04;21.55;;;14.85;;
48534;SDS011;34323;52.022;5.686;2023-05-07T05:46:30;17.25;;;14.07;;
48534;SDS011;34323;52.022;5.686;2023-05-07T05:48:56;20.33;;;15.63;;
48534;SDS011;34323;52.022;5.686;2023-05-07T05:51:22;25.52;;;16.05;;
48534;SDS011;34323;52.022;5.686;2023-05-07T05:53:48;21.75;;;15.38;;
48534;SDS011;34323;52.022;5.686;2023-05-07T05:56:13;20.17;;;14.35;;
48534;SDS011;34323;52.022;5.686;2023-05-07T05:58:40;27.77;;;15.93;;
48534;SDS011;34323;52.022;5.686;2023-05-07T06:01:06;22.70;;;15.63;;
48534;SDS011;34323;52.022;5.686;2023-05-07T06:03:31;20.33;;;15.70;;
48534;SDS011;34323;52.022;5.686;2023-05-07T06:05:59;22.00;;;15.73;;
48534;SDS011;34323;52.022;5.686;2023-05-07T06:08:25;20.83;;;15.52;;
48534;SDS011;34323;52.022;5.686;2023-05-07T06:10:54;21.73;;;15.60;;
48534;SDS011;34323;52.022;5.686;2023-05-07T06:13:20;22.38;;;15.45;;
48534;SDS011;34323;52.022;5.686;2023-05-07T06:15:45;19.90;;;14.65;;
48534;SDS011;34323;52.022;5.686;2023-05-07T06:18:11;25.92;;;17.05;;
48534;SDS011;34323;52.022;5.686;2023-05-07T06:20:36;20.17;;;15.35;;
48534;SDS011;34323;52.022;5.686;2023-05-07T06:23:02;27.13;;;17.27;;
48534;SDS011;34323;52.022;5.686;2023-05-07T06:25:27;24.73;;;16.55;;
48534;SDS011;34323;52.022;5.686;2023-05-07T06:27:53;21.00;;;16.15;;
48534;SDS011;34323;52.022;5.686;2023-05-07T06:30:18;20.92;;;15.18;;
48534;SDS011;34323;52.022;5.686;2023-05-07T06:32:44;22.08;;;17.08;;
48534;SDS011;34323;52.022;5.686;2023-05-07T06:35:10;23.73;;;16.55;;
48534;SDS011;34323;52.022;5.686;2023-05-07T06:37:35;22.17;;;14.95;;
48534;SDS011;34323;52.022;5.686;2023-05-07T06:40:03;18.60;;;14.23;;
48534;SDS011;34323;52.022;5.686;2023-05-07T06:42:30;19.25;;;14.45;;
48534;SDS011;34323;52.022;5.686;2023-05-07T06:44:55;22.73;;;15.35;;
48534;SDS011;34323;52.022;5.686;2023-05-07T06:47:21;19.50;;;14.90;;
48534;SDS011;34323;52.022;5.686;2023-05-07T06:49:47;17.63;;;14.05;;
48534;SDS011;34323;52.022;5.686;2023-05-07T06:52:12;17.50;;;14.52;;
48534;SDS011;34323;52.022;5.686;2023-05-07T06:54:37;19.73;;;13.68;;
48534;SDS011;34323;52.022;5.686;2023-05-07T06:57:03;15.38;;;12.98;;
48534;SDS011;34323;52.022;5.686;2023-05-07T06:59:29;17.85;;;13.63;;
48534;SDS011;34323;52.022;5.686;2023-05-07T07:01:54;18.85;;;14.38;;
48534;SDS011;34323;52.022;5.686;2023-05-07T07:04:20;17.58;;;13.60;;
48534;SDS011;34323;52.022;5.686;2023-05-07T07:06:47;15.98;;;13.85;;
48534;SDS011;34323;52.022;5.686;2023-05-07T07:09:13;20.02;;;13.45;;
48534;SDS011;34323;52.022;5.686;2023-05-07T07:11:38;18.48;;;14.20;;
48534;SDS011;34323;52.022;5.686;2023-05-07T07:14:04;18.42;;;13.98;;
48534;SDS011;34323;52.022;5.686;2023-05-07T07:16:30;18.52;;;14.25;;
48534;SDS011;34323;52.022;5.686;2023-05-07T07:18:56;21.15;;;14.82;;
48534;SDS011;34323;52.022;5.686;2023-05-07T07:21:21;19.60;;;12.90;;
48534;SDS011;34323;52.022;5.686;2023-05-07T07:23:47;18.98;;;13.60;;
48534;SDS011;34323;52.022;5.686;2023-05-07T07:26:12;18.77;;;14.75;;
48534;SDS011;34323;52.022;5.686;2023-05-07T07:28:56;18.80;;;15.02;;
48534;SDS011;34323;52.022;5.686;2023-05-07T07:31:21;18.95;;;14.80;;
48534;SDS011;34323;52.022;5.686;2023-05-07T07:33:47;20.00;;;15.50;;
48534;SDS011;34323;52.022;5.686;2023-05-07T07:36:14;15.85;;;13.80;;
48534;SDS011;34323;52.022;5.686;2023-05-07T07:38:40;19.17;;;15.20;;
48534;SDS011;34323;52.022;5.686;2023-05-07T07:41:07;18.77;;;14.25;;
48534;SDS011;34323;52.022;5.686;2023-05-07T07:43:33;21.45;;;15.95;;
48534;SDS011;34323;52.022;5.686;2023-05-07T07:45:59;21.02;;;16.25;;
48534;SDS011;34323;52.022;5.686;2023-05-07T07:48:24;22.20;;;15.57;;
48534;SDS011;34323;52.022;5.686;2023-05-07T07:50:50;17.13;;;14.70;;
48534;SDS011;34323;52.022;5.686;2023-05-07T07:53:16;17.48;;;14.07;;
48534;SDS011;34323;52.022;5.686;2023-05-07T07:55:42;17.95;;;15.38;;
48534;SDS011;34323;52.022;5.686;2023-05-07T07:58:07;23.50;;;17.48;;
48534;SDS011;34323;52.022;5.686;2023-05-07T08:00:33;19.13;;;15.68;;
48534;SDS011;34323;52.022;5.686;2023-05-07T08:02:58;18.20;;;14.82;;
48534;SDS011;34323;52.022;5.686;2023-05-07T08:05:25;20.00;;;16.85;;
48534;SDS011;34323;52.022;5.686;2023-05-07T08:07:51;19.10;;;16.00;;
48534;SDS011;34323;52.022;5.686;2023-05-07T08:10:18;20.02;;;15.82;;
48534;SDS011;34323;52.022;5.686;2023-05-07T08:12:49;20.88;;;15.65;;
48534;SDS011;34323;52.022;5.686;2023-05-07T08:15:15;20.70;;;17.00;;
48534;SDS011;34323;52.022;5.686;2023-05-07T08:17:41;24.05;;;17.00;;
48534;SDS011;34323;52.022;5.686;2023-05-07T08:20:07;26.17;;;18.05;;
48534;SDS011;34323;52.022;5.686;2023-05-07T08:22:34;27.20;;;19.50;;
48534;SDS011;34323;52.022;5.686;2023-05-07T08:25:02;22.30;;;18.10;;
48534;SDS011;34323;52.022;5.686;2023-05-07T08:27:28;20.65;;;16.83;;
48534;SDS011;34323;52.022;5.686;2023-05-07T08:29:54;22.25;;;17.42;;
48534;SDS011;34323;52.022;5.686;2023-05-07T08:32:20;21.20;;;17.08;;
48534;SDS011;34323;52.022;5.686;2023-05-07T08:34:45;24.95;;;17.67;;
48534;SDS011;34323;52.022;5.686;2023-05-07T08:37:12;26.30;;;18.63;;
48534;SDS011;34323;52.022;5.686;2023-05-07T08:39:37;24.08;;;17.83;;
48534;SDS011;34323;52.022;5.686;2023-05-07T08:42:03;24.50;;;15.30;;
48534;SDS011;34323;52.022;5.686;2023-05-07T08:44:32;20.50;;;15.95;;
48534;SDS011;34323;52.022;5.686;2023-05-07T08:47:01;18.65;;;15.18;;
48534;SDS011;34323;52.022;5.686;2023-05-07T08:49:27;20.10;;;14.57;;
48534;SDS011;34323;52.022;5.686;2023-05-07T08:51:53;21.05;;;14.50;;
48534;SDS011;34323;52.022;5.686;2023-05-07T08:54:20;22.67;;;15.50;;
48534;SDS011;34323;52.022;5.686;2023-05-07T08:56:46;20.08;;;15.93;;
48534;SDS011;34323;52.022;5.686;2023-05-07T08:59:11;20.42;;;16.52;;
48534;SDS011;34323;52.022;5.686;2023-05-07T09:01:37;25.00;;;17.27;;
48534;SDS011;34323;52.022;5.686;2023-05-07T09:04:03;22.75;;;16.38;;
48534;SDS011;34323;52.022;5.686;2023-05-07T09:06:30;24.48;;;16.15;;
48534;SDS011;34323;52.022;5.686;2023-05-07T09:08:56;24.17;;;15.43;;
48534;SDS011;34323;52.022;5.686;2023-05-07T09:11:23;23.33;;;16.38;;
48534;SDS011;34323;52.022;5.686;2023-05-07T09:13:53;19.45;;;14.85;;
48534;SDS011;34323;52.022;5.686;2023-05-07T09:16:21;22.42;;;14.35;;
48534;SDS011;34323;52.022;5.686;2023-05-07T09:18:47;22.42;;;14.63;;
48534;SDS011;34323;52.022;5.686;2023-05-07T09:21:15;19.05;;;14.10;;
48534;SDS011;34323;52.022;5.686;2023-05-07T09:23:42;19.52;;;13.52;;
48534;SDS011;34323;52.022;5.686;2023-05-07T09:26:07;18.05;;;14.00;;
48534;SDS011;34323;52.022;5.686;2023-05-07T09:28:39;18.70;;;12.50;;
48534;SDS011;34323;52.022;5.686;2023-05-07T09:31:06;20.42;;;12.65;;
48534;SDS011;34323;52.022;5.686;2023-05-07T09:33:32;18.20;;;12.27;;
48534;SDS011;34323;52.022;5.686;2023-05-07T09:35:58;17.08;;;11.35;;
48534;SDS011;34323;52.022;5.686;2023-05-07T09:38:23;18.02;;;11.43;;
48534;SDS011;34323;52.022;5.686;2023-05-07T09:41:06;14.93;;;10.68;;
48534;SDS011;34323;52.022;5.686;2023-05-07T09:43:34;16.35;;;9.75;;
48534;SDS011;34323;52.022;5.686;2023-05-07T09:46:02;16.88;;;10.45;;
48534;SDS011;34323;52.022;5.686;2023-05-07T09:48:34;13.02;;;9.02;;
48534;SDS011;34323;52.022;5.686;2023-05-07T09:51:03;13.13;;;8.27;;
48534;SDS011;34323;52.022;5.686;2023-05-07T09:53:36;12.05;;;8.07;;
48534;SDS011;34323;52.022;5.686;2023-05-07T09:56:05;11.38;;;7.47;;
48534;SDS011;34323;52.022;5.686;2023-05-07T09:58:30;13.45;;;8.13;;
48534;SDS011;34323;52.022;5.686;2023-05-07T10:00:58;12.35;;;7.65;;
48534;SDS011;34323;52.022;5.686;2023-05-07T10:03:24;11.05;;;7.10;;
48534;SDS011;34323;52.022;5.686;2023-05-07T10:05:51;13.85;;;7.35;;
48534;SDS011;34323;52.022;5.686;2023-05-07T10:08:18;11.88;;;7.05;;
48534;SDS011;34323;52.022;5.686;2023-05-07T10:10:44;11.93;;;7.25;;
48534;SDS011;34323;52.022;5.686;2023-05-07T10:13:11;11.63;;;7.13;;
48534;SDS011;34323;52.022;5.686;2023-05-07T10:15:37;9.73;;;6.63;;
48534;SDS011;34323;52.022;5.686;2023-05-07T10:18:03;9.85;;;6.85;;
48534;SDS011;34323;52.022;5.686;2023-05-07T10:20:31;12.02;;;6.88;;
48534;SDS011;34323;52.022;5.686;2023-05-07T10:22:58;8.20;;;6.15;;
48534;SDS011;34323;52.022;5.686;2023-05-07T10:25:31;12.15;;;6.22;;
48534;SDS011;34323;52.022;5.686;2023-05-07T10:27:59;8.77;;;6.32;;
48534;SDS011;34323;52.022;5.686;2023-05-07T10:33:26;10.07;;;5.57;;
48534;SDS011;34323;52.022;5.686;2023-05-07T10:35:58;18.80;;;5.25;;
48534;SDS011;34323;52.022;5.686;2023-05-07T10:38:26;9.07;;;5.22;;
48534;SDS011;34323;52.022;5.686;2023-05-07T10:40:52;8.32;;;4.57;;
48534;SDS011;34323;52.022;5.686;2023-05-07T10:43:18;13.13;;;5.55;;
48534;SDS011;34323;52.022;5.686;2023-05-07T10:45:49;6.78;;;4.55;;
48534;SDS011;34323;52.022;5.686;2023-05-07T10:51:31;8.65;;;4.32;;
48534;SDS011;34323;52.022;5.686;2023-05-07T10:56:39;8.65;;;4.28;;
48534;SDS011;34323;52.022;5.686;2023-05-07T10:59:29;8.95;;;4.63;;
48534;SDS011;34323;52.022;5.686;2023-05-07T11:01:57;9.35;;;4.32;;
48534;SDS011;34323;52.022;5.686;2023-05-07T11:04:24;8.75;;;4.68;;
48534;SDS011;34323;52.022;5.686;2023-05-07T11:07:28;6.70;;;4.13;;
48534;SDS011;34323;52.022;5.686;2023-05-07T11:15:04;5.72;;;3.65;;
48534;SDS011;34323;52.022;5.686;2023-05-07T11:17:34;8.27;;;4.05;;
48534;SDS011;34323;52.022;5.686;2023-05-07T11:20:16;4.90;;;3.23;;
48534;SDS011;34323;52.022;5.686;2023-05-07T11:22:42;4.15;;;2.83;;
48534;SDS011;34323;52.022;5.686;2023-05-07T11:25:08;5.93;;;3.13;;
48534;SDS011;34323;52.022;5.686;2023-05-07T11:27:33;4.78;;;2.75;;
48534;SDS011;34323;52.022;5.686;2023-05-07T11:29:59;3.78;;;2.53;;
48534;SDS011;34323;52.022;5.686;2023-05-07T11:32:30;6.40;;;2.95;;
48534;SDS011;34323;52.022;5.686;2023-05-07T11:34:57;5.18;;;3.47;;
48534;SDS011;34323;52.022;5.686;2023-05-07T11:37:24;5.70;;;3.00;;
48534;SDS011;34323;52.022;5.686;2023-05-07T11:39:51;4.60;;;2.80;;
48534;SDS011;34323;52.022;5.686;2023-05-07T11:42:30;5.30;;;2.63;;
48534;SDS011;34323;52.022;5.686;2023-05-07T11:44:57;4.28;;;2.45;;
48534;SDS011;34323;52.022;5.686;2023-05-07T11:47:22;6.63;;;3.35;;
48534;SDS011;34323;52.022;5.686;2023-05-07T11:49:51;7.82;;;3.53;;
48534;SDS011;34323;52.022;5.686;2023-05-07T11:52:18;7.30;;;3.88;;
48534;SDS011;34323;52.022;5.686;2023-05-07T11:54:57;5.43;;;3.13;;
48534;SDS011;34323;52.022;5.686;2023-05-07T11:57:25;6.45;;;3.10;;
48534;SDS011;34323;52.022;5.686;2023-05-07T12:02:23;6.32;;;3.78;;
48534;SDS011;34323;52.022;5.686;2023-05-07T12:04:53;10.65;;;4.88;;
48534;SDS011;34323;52.022;5.686;2023-05-07T12:07:19;11.60;;;5.60;;
48534;SDS011;34323;52.022;5.686;2023-05-07T12:09:45;5.88;;;4.82;;
48534;SDS011;34323;52.022;5.686;2023-05-07T12:12:11;8.23;;;5.47;;
48534;SDS011;34323;52.022;5.686;2023-05-07T12:14:44;7.32;;;5.05;;
48534;SDS011;34323;52.022;5.686;2023-05-07T12:17:11;9.32;;;4.85;;
48534;SDS011;34323;52.022;5.686;2023-05-07T12:19:39;9.75;;;7.32;;
48534;SDS011;34323;52.022;5.686;2023-05-07T12:22:08;13.13;;;6.53;;
48534;SDS011;34323;52.022;5.686;2023-05-07T12:24:47;9.15;;;6.72;;
48534;SDS011;34323;52.022;5.686;2023-05-07T12:27:14;9.45;;;5.40;;
48534;SDS011;34323;52.022;5.686;2023-05-07T12:29:45;10.85;;;6.10;;
48534;SDS011;34323;52.022;5.686;2023-05-07T12:32:18;7.82;;;5.88;;
48534;SDS011;34323;52.022;5.686;2023-05-07T12:34:45;10.90;;;5.90;;
48534;SDS011;34323;52.022;5.686;2023-05-07T12:37:11;8.25;;;5.57;;
48534;SDS011;34323;52.022;5.686;2023-05-07T12:39:49;6.68;;;5.00;;
48534;SDS011;34323;52.022;5.686;2023-05-07T12:42:38;7.20;;;4.38;;
48534;SDS011;34323;52.022;5.686;2023-05-07T12:45:10;6.18;;;4.03;;
48534;SDS011;34323;52.022;5.686;2023-05-07T12:47:37;8.20;;;4.30;;
48534;SDS011;34323;52.022;5.686;2023-05-07T12:50:05;7.07;;;4.32;;
48534;SDS011;34323;52.022;5.686;2023-05-07T12:52:31;10.50;;;5.25;;
48534;SDS011;34323;52.022;5.686;2023-05-07T12:55:03;8.45;;;5.45;;
48534;SDS011;34323;52.022;5.686;2023-05-07T12:57:30;6.93;;;4.68;;
48534;SDS011;34323;52.022;5.686;2023-05-07T13:00:02;8.48;;;3.85;;
48534;SDS011;34323;52.022;5.686;2023-05-07T13:02:47;6.63;;;3.33;;
48534;SDS011;34323;52.022;5.686;2023-05-07T13:05:12;7.55;;;5.10;;
48534;SDS011;34323;52.022;5.686;2023-05-07T13:07:38;8.45;;;4.60;;
48534;SDS011;34323;52.022;5.686;2023-05-07T13:10:05;5.88;;;3.13;;
48534;SDS011;34323;52.022;5.686;2023-05-07T13:12:31;8.27;;;3.60;;
48534;SDS011;34323;52.022;5.686;2023-05-07T13:14:57;5.50;;;3.17;;
48534;SDS011;34323;52.022;5.686;2023-05-07T13:17:24;6.95;;;3.92;;
48534;SDS011;34323;52.022;5.686;2023-05-07T13:19:49;9.27;;;4.45;;
48534;SDS011;34323;52.022;5.686;2023-05-07T13:22:15;7.10;;;4.47;;
48534;SDS011;34323;52.022;5.686;2023-05-07T13:24:40;6.97;;;4.28;;
48534;SDS011;34323;52.022;5.686;2023-05-07T13:27:07;7.70;;;5.57;;
48534;SDS011;34323;52.022;5.686;2023-05-07T13:29:33;7.80;;;4.95;;
48534;SDS011;34323;52.022;5.686;2023-05-07T13:31:59;7.07;;;4.57;;
48534;SDS011;34323;52.022;5.686;2023-05-07T13:34:24;6.50;;;3.83;;
48534;SDS011;34323;52.022;5.686;2023-05-07T13:36:50;6.82;;;3.72;;
48534;SDS011;34323;52.022;5.686;2023-05-07T13:39:15;8.15;;;4.50;;
48534;SDS011;34323;52.022;5.686;2023-05-07T13:41:41;5.93;;;3.90;;
48534;SDS011;34323;52.022;5.686;2023-05-07T13:44:07;8.07;;;3.70;;
48534;SDS011;34323;52.022;5.686;2023-05-07T13:46:32;9.57;;;3.97;;
48534;SDS011;34323;52.022;5.686;2023-05-07T13:48:58;6.55;;;2.45;;
48534;SDS011;34323;52.022;5.686;2023-05-07T13:51:23;3.53;;;1.60;;
48534;SDS011;34323;52.022;5.686;2023-05-07T13:53:49;1.65;;;1.15;;
48534;SDS011;34323;52.022;5.686;2023-05-07T13:56:15;4.03;;;1.70;;
48534;SDS011;34323;52.022;5.686;2023-05-07T13:58:41;5.35;;;2.35;;
48534;SDS011;34323;52.022;5.686;2023-05-07T14:01:06;3.20;;;1.90;;
48534;SDS011;34323;52.022;5.686;2023-05-07T14:03:32;5.05;;;2.20;;
48534;SDS011;34323;52.022;5.686;2023-05-07T14:05:58;5.70;;;2.38;;
48534;SDS011;34323;52.022;5.686;2023-05-07T14:08:26;5.55;;;1.88;;
48534;SDS011;34323;52.022;5.686;2023-05-07T14:10:52;12.32;;;2.40;;
48534;SDS011;34323;52.022;5.686;2023-05-07T14:13:17;4.53;;;1.77;;
48534;SDS011;34323;52.022;5.686;2023-05-07T14:15:43;12.75;;;7.25;;
48534;SDS011;34323;52.022;5.686;2023-05-07T14:18:13;11.38;;;6.65;;
48534;SDS011;34323;52.022;5.686;2023-05-07T14:20:38;9.90;;;5.85;;
48534;SDS011;34323;52.022;5.686;2023-05-07T14:23:04;13.40;;;7.03;;
48534;SDS011;34323;52.022;5.686;2023-05-07T14:25:30;10.88;;;7.28;;
48534;SDS011;34323;52.022;5.686;2023-05-07T14:27:55;13.02;;;7.95;;
48534;SDS011;34323;52.022;5.686;2023-05-07T14:30:21;10.63;;;6.60;;
48534;SDS011;34323;52.022;5.686;2023-05-07T14:32:49;9.38;;;5.82;;
48534;SDS011;34323;52.022;5.686;2023-05-07T14:35:15;8.77;;;4.30;;
48534;SDS011;34323;52.022;5.686;2023-05-07T14:37:40;6.53;;;4.50;;
48534;SDS011;34323;52.022;5.686;2023-05-07T14:40:06;6.65;;;4.40;;
48534;SDS011;34323;52.022;5.686;2023-05-07T14:42:32;9.05;;;4.97;;
48534;SDS011;34323;52.022;5.686;2023-05-07T14:44:57;9.88;;;6.13;;
48534;SDS011;34323;52.022;5.686;2023-05-07T14:47:23;9.50;;;7.40;;